Falmouth, Massachusetts
Current Conditions -  °F | °C
As of 7:35 AM on Thursday 23 Oct 2014 (Local Time) from KFMH Reporting Station
Haze Haze  
Wind Chill: 57°   Ceiling: 500
Heat Index: 57°   Visibility: 5mi
Dew Point: 55°   Wind: 16mph
Humidity: 94%   Direction: 20°NNE
Pressure: 29.55"   Gusts: 30mph
Location:  41.55°N, 70.61°W
Report Text: KFMH 231135Z AUTO 02014G26KT 5SM BR OVC005 14/13 A2955 RMK AO2
Loading
Personal Weather Stations






























Interactive Weather Map
Tropical Storm Tracking
New forecast layout! Learn more

10-Day Weather Forecast

Advertisements
Track Severe Weather on mobile